createdAt,value
2019-01-02T00:00:16.874Z,4.64
2019-01-02T00:01:17.026Z,4.61
2019-01-02T00:02:16.907Z,4.68
2019-01-02T00:03:18.891Z,4.68
2019-01-02T00:04:18.215Z,4.68
2019-01-02T00:05:19.187Z,4.61
2019-01-02T00:06:21.395Z,4.67
2019-01-02T00:07:20.530Z,4.63
2019-01-02T00:08:21.667Z,4.56
2019-01-02T00:09:23.747Z,4.61
2019-01-02T00:10:22.701Z,4.52
2019-01-02T00:11:25.570Z,4.48
2019-01-02T00:12:25.147Z,4.53
2019-01-02T00:13:25.851Z,4.46
2019-01-02T00:14:28.559Z,4.52
2019-01-02T00:15:28.408Z,4.56
2019-01-02T00:16:29.964Z,4.56
2019-01-02T00:17:31.662Z,4.57
2019-01-02T00:18:31.766Z,4.5
2019-01-02T00:19:32.782Z,4.52
2019-01-02T00:20:33.826Z,4.46
2019-01-02T00:21:34.251Z,4.48
2019-01-02T00:22:36.033Z,4.48
2019-01-02T00:23:35.830Z,4.52
2019-01-02T00:24:36.258Z,4.5
2019-01-02T00:25:38.457Z,4.53
2019-01-02T00:26:37.584Z,4.53
2019-01-02T00:27:38.015Z,4.46
2019-01-02T00:28:39.506Z,4.32
2019-01-02T00:29:39.899Z,4.36
2019-01-02T00:30:41.566Z,4.3
2019-01-02T00:31:41.985Z,4.27
2019-01-02T00:32:42.216Z,4.25
2019-01-02T00:33:44.659Z,4.25
2019-01-02T00:34:44.029Z,4.3
2019-01-02T00:35:44.734Z,4.21
2019-01-02T00:36:45.869Z,4.18
2019-01-02T00:37:45.211Z,4.13
2019-01-02T00:38:47.059Z,4.06
2019-01-02T00:39:46.614Z,4.13
2019-01-02T00:40:47.322Z,4.12
2019-01-02T00:41:49.239Z,3.77
2019-01-02T00:42:49.722Z,3.74
2019-01-02T00:43:50.725Z,3.55
2019-01-02T00:44:53.346Z,3.45
2019-01-02T00:45:52.905Z,3.16
2019-01-02T00:46:54.935Z,2.91
2019-01-02T00:47:55.217Z,2.87
2019-01-02T00:48:55.207Z,2.72
2019-01-02T00:49:57.044Z,2.69
2019-01-02T00:50:56.395Z,2.69
2019-01-02T00:51:57.388Z,2.72
2019-01-02T00:52:58.079Z,2.7
2019-01-02T00:53:58.065Z,2.55
2019-01-02T00:54:59.994Z,2.59
2019-01-02T00:55:59.231Z,2.55
2019-01-02T00:56:59.686Z,2.52
2019-01-02T00:58:01.376Z,2.44
2019-01-02T00:59:01.706Z,2.4
2019-01-02T01:00:03.487Z,2.43
2019-01-02T01:01:03.004Z,2.33
2019-01-02T01:02:03.162Z,2.26
2019-01-02T01:03:04.211Z,2.22
2019-01-02T01:04:04.809Z,2.25
2019-01-02T01:05:06.616Z,2.22
2019-01-02T01:06:06.478Z,2.15
2019-01-02T01:07:06.939Z,2.07
2019-01-02T01:08:08.526Z,2.15
2019-01-02T01:09:08.156Z,2.14
2019-01-02T01:10:11.272Z,2.05
2019-01-02T01:11:10.944Z,1.93
2019-01-02T01:12:11.378Z,2.01
2019-01-02T01:13:13.895Z,1.95
2019-01-02T01:14:12.781Z,2.04
2019-01-02T01:15:15.327Z,1.86
2019-01-02T01:16:14.727Z,1.97
2019-01-02T01:17:15.726Z,1.92
2019-01-02T01:18:17.855Z,1.86
2019-01-02T01:19:17.237Z,1.86
2019-01-02T01:20:17.965Z,1.93
2019-01-02T01:21:19.537Z,1.92
2019-01-02T01:22:19.873Z,1.86
2019-01-02T01:23:21.143Z,1.93
2019-01-02T01:24:21.835Z,1.88
2019-01-02T01:25:22.307Z,1.88
2019-01-02T01:26:23.469Z,1.86
2019-01-02T01:27:24.616Z,1.92
2019-01-02T01:28:25.462Z,1.85
2019-01-02T01:29:26.960Z,1.95
2019-01-02T01:30:27.226Z,1.82
2019-01-02T01:31:27.677Z,1.85
2019-01-02T01:32:29.297Z,1.84
2019-01-02T01:33:29.428Z,1.85
2019-01-02T01:34:29.858Z,1.78
2019-01-02T01:35:31.324Z,1.89
2019-01-02T01:36:31.471Z,1.93
2019-01-02T01:37:32.178Z,2
2019-01-02T01:38:33.606Z,1.97
2019-01-02T01:39:34.056Z,1.95
2019-01-02T01:40:34.496Z,1.97
2019-01-02T01:41:35.502Z,1.93
2019-01-02T01:42:36.259Z,1.95
2019-01-02T01:43:37.819Z,2.03
2019-01-02T01:44:39.138Z,2.08
2019-01-02T01:45:38.787Z,1.98
2019-01-02T01:46:39.808Z,2.03
2019-01-02T01:47:42.065Z,2
2019-01-02T01:48:40.950Z,2.03
2019-01-02T01:49:42.211Z,2.08
2019-01-02T01:50:43.315Z,2.12
2019-01-02T01:51:43.702Z,2.07
2019-01-02T01:52:44.418Z,2.05
2019-01-02T01:53:45.937Z,2.18
2019-01-02T01:54:46.007Z,2.08
2019-01-02T01:55:46.442Z,2.07
2019-01-02T01:56:49.120Z,2.18
2019-01-02T01:57:48.840Z,2.22
2019-01-02T01:58:48.826Z,2.22
2019-01-02T01:59:51.306Z,2.26
2019-01-02T02:00:52.283Z,2.21
2019-01-02T02:01:52.440Z,2.25
2019-01-02T02:02:54.875Z,2.25
2019-01-02T02:03:53.996Z,2.21
2019-01-02T02:04:54.429Z,2.21
2019-01-02T02:05:56.418Z,2.22
2019-01-02T02:06:56.019Z,2.33
2019-01-02T02:07:57.001Z,2.32
2019-01-02T02:08:57.726Z,2.25
2019-01-02T02:09:57.987Z,2.26
2019-01-02T02:10:58.420Z,2.26
2019-01-02T02:11:59.431Z,2.3
2019-01-02T02:12:59.914Z,2.28
2019-01-02T02:14:00.642Z,2.33
2019-01-02T02:15:01.449Z,2.33
2019-01-02T02:16:02.767Z,2.33
2019-01-02T02:17:04.679Z,2.23
2019-01-02T02:18:04.697Z,2.3
2019-01-02T02:19:05.408Z,2.43
2019-01-02T02:20:07.241Z,2.33
2019-01-02T02:21:06.377Z,2.36
2019-01-02T02:22:06.827Z,2.26
2019-01-02T02:23:08.670Z,2.33
2019-01-02T02:24:08.281Z,2.33
2019-01-02T02:25:09.705Z,2.28
2019-01-02T02:26:11.103Z,2.33
2019-01-02T02:27:11.317Z,2.21
2019-01-02T02:28:11.474Z,2.25
2019-01-02T02:29:13.966Z,2.25
2019-01-02T02:30:14.443Z,2.22
2019-01-02T02:31:15.669Z,2.12
2019-01-02T02:32:15.898Z,2.1
2019-01-02T02:33:16.350Z,2.1
2019-01-02T02:34:17.782Z,2.14
2019-01-02T02:35:17.134Z,2.1
2019-01-02T02:36:19.502Z,2.18
2019-01-02T02:37:19.323Z,2.22
2019-01-02T02:38:22.284Z,2.21
2019-01-02T02:39:23.063Z,2.23
2019-01-02T02:40:23.540Z,2.22
2019-01-02T02:41:25.925Z,2.23
2019-01-02T02:42:26.304Z,2.23
2019-01-02T02:43:26.188Z,2.18
2019-01-02T02:44:28.127Z,2.1
2019-01-02T02:45:29.545Z,2.21
2019-01-02T02:46:29.205Z,2.23
2019-01-02T02:47:31.383Z,2.26
2019-01-02T02:48:31.619Z,2.28
2019-01-02T02:49:31.611Z,2.16
2019-01-02T02:50:33.204Z,2.15
2019-01-02T02:51:34.530Z,2.18
2019-01-02T02:52:34.298Z,2.23
2019-01-02T02:53:35.508Z,2.22
2019-01-02T02:54:24.406Z,2.18
2019-01-02T02:55:24.968Z,2.23
2019-01-02T02:56:25.939Z,2.19
2019-01-02T02:57:25.498Z,2.26
2019-01-02T02:58:27.696Z,2.34
2019-01-02T02:59:28.723Z,2.32
2019-01-02T03:00:28.336Z,2.36
2019-01-02T03:01:30.419Z,2.28
2019-01-02T03:02:29.564Z,2.21
2019-01-02T03:03:30.323Z,2.3
2019-01-02T03:04:31.806Z,2.32
2019-01-02T03:05:32.046Z,2.21
2019-01-02T03:06:34.721Z,2.33
2019-01-02T03:07:35.558Z,2.33
2019-01-02T03:08:34.898Z,2.23
2019-01-02T03:09:36.179Z,2.18
2019-01-02T03:10:37.771Z,2.16
2019-01-02T03:11:37.153Z,2.16
2019-01-02T03:12:38.069Z,2.14
2019-01-02T03:13:39.798Z,2.14
2019-01-02T03:14:39.591Z,2.12
2019-01-02T03:15:41.344Z,2.1
2019-01-02T03:16:42.463Z,1.97
2019-01-02T03:17:42.657Z,2.03
2019-01-02T03:18:44.468Z,1.97
2019-01-02T03:19:45.695Z,1.95
2019-01-02T03:20:44.898Z,1.97
2019-01-02T03:21:47.079Z,1.85
2019-01-02T03:22:48.673Z,1.86
2019-01-02T03:23:48.119Z,1.81
2019-01-02T03:24:50.187Z,1.81
2019-01-02T03:25:51.067Z,1.78
2019-01-02T03:26:50.651Z,1.82
2019-01-02T03:27:52.910Z,1.86
2019-01-02T03:28:54.490Z,1.84
2019-01-02T03:29:54.018Z,1.79
2019-01-02T03:30:56.678Z,1.81
2019-01-02T03:31:57.815Z,1.75
2019-01-02T03:32:58.350Z,1.78
2019-01-02T03:33:58.077Z,1.71
2019-01-02T03:34:58.323Z,1.81
2019-01-02T03:35:59.458Z,1.76
2019-01-02T03:37:00.151Z,1.79
2019-01-02T03:38:00.583Z,1.79
2019-01-02T03:39:01.271Z,1.74
2019-01-02T03:40:01.965Z,1.68
2019-01-02T03:41:02.938Z,1.82
2019-01-02T03:42:02.910Z,1.74
2019-01-02T03:43:03.876Z,1.76
2019-01-02T03:44:04.292Z,1.71
2019-01-02T03:45:04.706Z,1.64
2019-01-02T03:46:05.808Z,1.7
2019-01-02T03:47:06.499Z,1.58
2019-01-02T03:48:07.193Z,1.56
2019-01-02T03:49:07.610Z,1.52
2019-01-02T03:50:09.022Z,1.53
2019-01-02T03:51:09.713Z,1.61
2019-01-02T03:52:10.967Z,1.57
2019-01-02T03:53:11.379Z,1.53
2019-01-02T03:54:11.794Z,1.58
2019-01-02T03:55:12.766Z,1.52
2019-01-02T03:56:12.899Z,1.45
2019-01-02T03:57:14.312Z,1.58
2019-01-02T03:58:15.560Z,1.57
2019-01-02T03:59:15.977Z,1.52
2019-01-02T04:00:16.391Z,1.6
2019-01-02T04:01:17.089Z,1.52
2019-01-02T04:02:17.503Z,1.61
2019-01-02T04:03:18.196Z,1.58
2019-01-02T04:04:19.165Z,1.6
2019-01-02T04:05:19.301Z,1.56
2019-01-02T04:06:19.851Z,1.57
2019-01-02T04:07:20.265Z,1.61
2019-01-02T04:08:21.399Z,1.57
2019-01-02T04:09:22.561Z,1.66
2019-01-02T04:10:22.986Z,1.76
2019-01-02T04:11:23.675Z,1.7
2019-01-02T04:12:24.370Z,1.67
2019-01-02T04:13:24.790Z,1.63
2019-01-02T04:14:25.926Z,1.64
2019-01-02T04:15:26.895Z,1.67
2019-01-02T04:16:27.748Z,1.68
2019-01-02T04:17:28.442Z,1.66
2019-01-02T04:18:28.855Z,1.75
2019-01-02T04:19:29.268Z,1.66
2019-01-02T04:20:29.958Z,1.75
2019-01-02T04:21:30.379Z,1.64
2019-01-02T04:22:32.075Z,1.61
2019-01-02T04:23:32.531Z,1.58
2019-01-02T04:24:32.818Z,1.53
2019-01-02T04:25:33.236Z,1.53
2019-01-02T04:26:33.776Z,1.48
2019-01-02T04:27:34.749Z,1.45
2019-01-02T04:28:35.722Z,1.49
2019-01-02T04:29:36.694Z,1.4
2019-01-02T04:30:37.662Z,1.45
2019-01-02T04:31:38.907Z,1.31
2019-01-02T04:32:39.323Z,1.42
2019-01-02T04:33:40.017Z,1.4
2019-01-02T04:34:40.707Z,1.3
2019-01-02T04:35:41.678Z,1.28
2019-01-02T04:36:42.504Z,1.34
2019-01-02T04:37:42.919Z,1.31
2019-01-02T04:38:43.611Z,1.43
2019-01-02T04:39:44.027Z,1.42
2019-01-02T04:40:45.724Z,1.42
2019-01-02T04:41:45.702Z,1.4
2019-01-02T04:42:46.391Z,1.48
2019-01-02T04:43:47.083Z,1.56
2019-01-02T04:44:47.774Z,1.4
2019-01-02T04:45:48.470Z,1.45
2019-01-02T04:46:49.151Z,1.42
2019-01-02T04:47:49.563Z,1.38
2019-01-02T04:48:49.976Z,1.42
2019-01-02T04:49:50.392Z,1.46
2019-01-02T04:50:51.803Z,1.45
2019-01-02T04:51:53.221Z,1.45
2019-01-02T04:52:53.673Z,1.42
2019-01-02T04:53:54.367Z,1.45
2019-01-02T04:54:55.061Z,1.42
2019-01-02T04:55:56.031Z,1.38
2019-01-02T04:56:56.872Z,1.34
2019-01-02T04:57:57.289Z,1.45
2019-01-02T04:58:58.260Z,1.38
2019-01-02T04:59:58.231Z,1.34
2019-01-02T05:00:59.477Z,1.38
2019-01-02T05:01:59.446Z,1.38
2019-01-02T05:02:59.870Z,1.39
2019-01-02T05:04:00.010Z,1.3
2019-01-02T05:05:00.700Z,1.25
2019-01-02T05:06:01.140Z,1.24
2019-01-02T05:07:01.731Z,1.22
2019-01-02T05:08:02.425Z,1.25
2019-01-02T05:09:02.849Z,1.16
2019-01-02T05:10:03.539Z,1.2
2019-01-02T05:11:03.951Z,1.22
2019-01-02T05:12:05.089Z,1.27
2019-01-02T05:13:05.780Z,1.25
2019-01-02T05:14:07.193Z,1.25
2019-01-02T05:15:08.442Z,1.3
2019-01-02T05:16:08.966Z,1.27
2019-01-02T05:17:09.932Z,1.18
2019-01-02T05:18:10.622Z,1.22
2019-01-02T05:19:11.321Z,1.28
2019-01-02T05:20:11.735Z,1.27
2019-01-02T05:21:12.435Z,1.24
2019-01-02T05:22:13.723Z,1.34
2019-01-02T05:23:15.145Z,1.36
2019-01-02T05:24:15.330Z,1.42
2019-01-02T05:25:16.302Z,1.38
2019-01-02T05:26:16.998Z,1.36
2019-01-02T05:27:18.117Z,1.4
2019-01-02T05:28:18.807Z,1.38
2019-01-02T05:29:19.783Z,1.4
2019-01-02T05:30:20.476Z,1.4
2019-01-02T05:31:21.456Z,1.4
2019-01-02T05:32:22.426Z,1.34
2019-01-02T05:33:22.843Z,1.42
2019-01-02T05:34:23.368Z,1.4
2019-01-02T05:35:24.058Z,1.25
2019-01-02T05:36:24.484Z,1.28
2019-01-02T05:37:25.029Z,1.3
2019-01-02T05:38:25.720Z,1.22
2019-01-02T05:39:26.428Z,1.2
2019-01-02T05:40:27.406Z,1.22
2019-01-02T05:41:28.151Z,1.12
2019-01-02T05:42:28.841Z,1.14
2019-01-02T05:43:29.815Z,1.21
2019-01-02T05:44:29.953Z,1.1
2019-01-02T05:45:30.643Z,1
2019-01-02T05:46:31.341Z,0.95
2019-01-02T05:47:32.164Z,0.99
2019-01-02T05:48:33.419Z,1.03
2019-01-02T05:49:33.389Z,0.96
2019-01-02T05:50:34.524Z,0.92
2019-01-02T05:51:36.223Z,1
2019-01-02T05:52:36.191Z,0.89
2019-01-02T05:53:36.882Z,0.92
2019-01-02T05:54:38.126Z,0.89
2019-01-02T05:55:39.373Z,0.94
2019-01-02T05:56:39.794Z,0.89
2019-01-02T05:57:41.231Z,0.85
2019-01-02T05:58:42.199Z,1
2019-01-02T05:59:42.613Z,0.96
2019-01-02T06:00:43.027Z,0.92
2019-01-02T06:01:43.437Z,1
2019-01-02T06:02:43.585Z,1.02
2019-01-02T06:03:45.004Z,0.99
2019-01-02T06:04:47.449Z,0.94
2019-01-02T06:05:47.864Z,0.95
2019-01-02T06:06:48.280Z,0.95
2019-01-02T06:07:49.160Z,0.99
2019-01-02T06:08:50.166Z,1
2019-01-02T06:09:50.302Z,1
2019-01-02T06:10:51.836Z,0.95
2019-01-02T06:11:52.807Z,1.03
2019-01-02T06:12:53.500Z,0.92
2019-01-02T06:13:53.650Z,0.95
2019-01-02T06:14:54.623Z,0.99
2019-01-02T06:15:55.039Z,0.94
2019-01-02T06:16:55.733Z,0.92
2019-01-02T06:17:56.280Z,0.86
2019-01-02T06:18:57.269Z,0.84
2019-01-02T06:19:57.962Z,0.91
2019-01-02T06:20:58.656Z,0.88
2019-01-02T06:21:59.624Z,0.78
2019-01-02T06:23:00.149Z,0.88
2019-01-02T06:24:00.843Z,0.85
2019-01-02T06:25:02.090Z,0.85
2019-01-02T06:26:02.367Z,0.84
2019-01-02T06:27:02.656Z,0.88
2019-01-02T06:28:03.351Z,0.82
2019-01-02T06:29:03.809Z,0.84
2019-01-02T06:30:04.227Z,0.77
2019-01-02T06:31:05.365Z,0.85
2019-01-02T06:32:07.056Z,0.86
2019-01-02T06:33:07.748Z,0.89
2019-01-02T06:34:08.719Z,0.86
2019-01-02T06:35:09.411Z,0.78
2019-01-02T06:36:10.102Z,0.88
2019-01-02T06:37:11.181Z,0.82
2019-01-02T06:38:11.305Z,0.76
2019-01-02T06:39:11.997Z,0.78
2019-01-02T06:40:12.691Z,0.76
2019-01-02T06:41:13.391Z,0.73
2019-01-02T06:42:14.804Z,0.73
2019-01-02T06:43:15.778Z,0.76
2019-01-02T06:44:16.764Z,0.71
2019-01-02T06:45:18.177Z,0.66
2019-01-02T06:46:18.323Z,0.78
2019-01-02T06:47:19.365Z,0.73
2019-01-02T06:48:19.639Z,0.71
2019-01-02T06:49:20.335Z,0.77
2019-01-02T06:50:20.795Z,0.78
2019-01-02T06:51:21.208Z,0.77
2019-01-02T06:52:21.904Z,0.82
2019-01-02T06:53:22.316Z,0.76
2019-01-02T06:54:23.455Z,0.76
2019-01-02T06:55:23.870Z,0.77
2019-01-02T06:56:24.564Z,0.76
2019-01-02T06:57:24.979Z,0.71
2019-01-02T06:58:25.567Z,0.71
2019-01-02T06:59:27.262Z,0.76
2019-01-02T07:00:27.403Z,0.71
2019-01-02T07:01:28.821Z,0.76
2019-01-02T07:02:28.961Z,0.78
2019-01-02T07:03:29.416Z,0.74
2019-01-02T07:04:31.115Z,0.78
2019-01-02T07:05:32.685Z,0.81
2019-01-02T07:06:32.378Z,0.76
2019-01-02T07:07:32.808Z,0.73
2019-01-02T07:08:33.912Z,0.71
2019-01-02T07:09:34.885Z,0.68
2019-01-02T07:10:35.579Z,0.71
2019-01-02T07:11:36.275Z,0.71
2019-01-02T07:12:36.415Z,0.66
2019-01-02T07:13:37.830Z,0.71
2019-01-02T07:14:38.522Z,0.73
2019-01-02T07:15:39.219Z,0.76
2019-01-02T07:16:39.964Z,0.76
2019-01-02T07:17:41.104Z,0.74
2019-01-02T07:18:41.966Z,0.82
2019-01-02T07:19:42.386Z,0.76
2019-01-02T07:20:42.798Z,0.71
2019-01-02T07:21:43.217Z,0.7
2019-01-02T07:22:43.914Z,0.74
2019-01-02T07:23:45.209Z,0.73
2019-01-02T07:24:46.467Z,0.68
2019-01-02T07:25:47.715Z,0.61
2019-01-02T07:26:49.277Z,0.73
2019-01-02T07:27:49.969Z,0.74
2019-01-02T07:28:50.374Z,0.63
2019-01-02T07:29:51.347Z,0.61
2019-01-02T07:30:52.316Z,0.66
2019-01-02T07:31:52.290Z,0.71
2019-01-02T07:32:52.989Z,0.76
2019-01-02T07:33:53.124Z,0.78
2019-01-02T07:34:53.818Z,0.81
2019-01-02T07:35:55.512Z,0.74
2019-01-02T07:36:55.658Z,0.67
2019-01-02T07:37:56.097Z,0.71
2019-01-02T07:38:56.945Z,0.73
2019-01-02T07:39:57.918Z,0.76
2019-01-02T07:40:58.064Z,0.74
2019-01-02T07:41:58.758Z,0.74
2019-01-02T07:43:00.171Z,0.76
2019-01-02T07:44:01.147Z,0.74
2019-01-02T07:45:01.578Z,0.73
2019-01-02T07:46:02.003Z,0.64
2019-01-02T07:47:03.988Z,0.73
2019-01-02T07:48:04.698Z,0.73
2019-01-02T07:49:05.249Z,0.71
2019-01-02T07:50:06.222Z,0.73
2019-01-02T07:51:06.912Z,0.76
2019-01-02T07:52:07.054Z,0.71
2019-01-02T07:53:07.749Z,0.74
2019-01-02T07:54:07.889Z,0.7
2019-01-02T07:55:09.306Z,0.81
2019-01-02T07:56:09.733Z,0.81
2019-01-02T07:57:10.712Z,0.85
2019-01-02T07:58:11.698Z,0.76
2019-01-02T07:59:11.548Z,0.84
2019-01-02T08:00:12.521Z,0.85
2019-01-02T08:01:13.046Z,0.86
2019-01-02T08:02:13.740Z,0.82
2019-01-02T08:03:14.483Z,0.77
2019-01-02T08:04:14.902Z,0.82
2019-01-02T08:05:15.321Z,0.81
2019-01-02T08:06:16.737Z,0.74
2019-01-02T08:07:17.434Z,0.73
2019-01-02T08:08:18.130Z,0.76
2019-01-02T08:09:18.971Z,0.74
2019-01-02T08:10:19.112Z,0.7
2019-01-02T08:11:19.529Z,0.7
2019-01-02T08:12:20.669Z,0.7
2019-01-02T08:13:21.365Z,0.73
2019-01-02T08:14:22.068Z,0.73
2019-01-02T08:15:22.763Z,0.71
2019-01-02T08:16:23.737Z,0.67
2019-01-02T08:17:24.709Z,0.67
2019-01-02T08:18:25.126Z,0.71
2019-01-02T08:19:26.259Z,0.76
2019-01-02T08:20:27.676Z,0.71
2019-01-02T08:21:28.368Z,0.71
2019-01-02T08:22:28.510Z,0.71
2019-01-02T08:23:28.928Z,0.76
2019-01-02T08:24:29.904Z,0.76
2019-01-02T08:25:30.327Z,0.71
2019-01-02T08:26:32.023Z,0.78
2019-01-02T08:27:32.439Z,0.74
2019-01-02T08:28:34.419Z,0.76
2019-01-02T08:29:34.247Z,0.78
2019-01-02T08:30:34.698Z,0.78
2019-01-02T08:31:34.842Z,0.81
2019-01-02T08:32:35.538Z,0.78
2019-01-02T08:33:35.961Z,0.74
2019-01-02T08:34:36.378Z,0.77
2019-01-02T08:35:37.807Z,0.78
2019-01-02T08:36:38.336Z,0.76
2019-01-02T08:37:39.312Z,0.85
2019-01-02T08:38:40.294Z,0.85
2019-01-02T08:39:40.980Z,0.82
2019-01-02T08:40:41.397Z,0.88
2019-01-02T08:41:41.816Z,0.88
2019-01-02T08:42:42.964Z,0.91
2019-01-02T08:43:43.951Z,0.85
2019-01-02T08:44:44.092Z,0.85
2019-01-02T08:45:45.240Z,0.88
2019-01-02T08:46:45.658Z,0.89
2019-01-02T08:47:46.362Z,0.82
2019-01-02T08:48:47.061Z,0.85
2019-01-02T08:49:47.610Z,0.78
2019-01-02T08:50:48.319Z,0.77
2019-01-02T08:51:48.566Z,0.78
2019-01-02T08:52:49.095Z,0.86
2019-01-02T08:53:49.793Z,0.74
2019-01-02T08:54:50.488Z,0.73
2019-01-02T08:55:51.456Z,0.63
2019-01-02T08:56:52.152Z,0.59
2019-01-02T08:57:52.846Z,0.42
2019-01-02T08:58:53.541Z,0.3
2019-01-02T08:59:54.935Z,0.31
2019-01-02T09:00:55.352Z,0.24
2019-01-02T09:01:55.495Z,0.24
2019-01-02T09:02:56.102Z,0.16
2019-01-02T09:03:56.973Z,0.18
2019-01-02T09:04:57.668Z,0.12
2019-01-02T09:05:58.622Z,0.15
2019-01-02T09:07:02.408Z,0.19
2019-01-02T09:07:13.022Z,0.24
2019-01-02T09:07:25.543Z,0.2
2019-01-02T09:07:36.755Z,0.31
2019-01-02T09:08:35.689Z,0.3
2019-01-02T09:09:36.676Z,0.29
2019-01-02T09:10:37.154Z,0.29
2019-01-02T09:11:38.307Z,0.45
2019-01-02T09:12:39.005Z,0.4
2019-01-02T09:13:40.005Z,0.49
2019-01-02T09:14:40.424Z,0.59
2019-01-02T09:15:40.841Z,0.58
2019-01-02T09:16:41.981Z,0.59
2019-01-02T09:17:42.402Z,0.63
2019-01-02T09:18:43.784Z,0.67
2019-01-02T09:19:44.211Z,0.64
2019-01-02T09:20:45.188Z,0.77
2019-01-02T09:21:49.355Z,0.71
2019-01-02T09:22:47.075Z,0.78
2019-01-02T09:23:48.340Z,0.78
2019-01-02T09:24:48.760Z,0.81
2019-01-02T09:25:53.011Z,0.81
2019-01-02T09:26:04.360Z,0.81
2019-01-02T09:26:14.898Z,0.88
2019-01-02T09:27:15.261Z,0.78
2019-01-02T09:28:16.684Z,0.82
2019-01-02T09:29:17.106Z,0.84
2019-01-02T09:30:18.103Z,0.81
2019-01-02T09:31:18.296Z,0.86
2019-01-02T09:32:19.987Z,0.92
2019-01-02T09:33:20.693Z,0.89
2019-01-02T09:34:21.430Z,0.92
2019-01-02T09:35:22.127Z,0.95
2019-01-02T09:36:22.269Z,0.99
2019-01-02T09:37:23.126Z,1.03
2019-01-02T09:38:23.547Z,0.99
2019-01-02T09:39:24.299Z,0.95
2019-01-02T09:40:24.998Z,1
2019-01-02T09:41:25.139Z,1.03
2019-01-02T09:42:25.569Z,1.03
2019-01-02T09:43:26.265Z,0.95
2019-01-02T09:44:27.242Z,1.04
2019-01-02T09:45:27.988Z,1.06
2019-01-02T09:46:29.357Z,1.13
2019-01-02T09:47:30.402Z,1.06
2019-01-02T09:48:31.671Z,1.02
2019-01-02T09:49:31.322Z,0.99
2019-01-02T09:50:32.014Z,1.02
2019-01-02T09:51:37.447Z,0.96
2019-01-02T09:51:48.391Z,0.96
2019-01-02T09:52:00.972Z,0.92
2019-01-02T09:52:10.031Z,0.92
2019-01-02T09:53:10.070Z,0.92
2019-01-02T09:54:10.239Z,0.81
2019-01-02T09:55:11.219Z,0.73
2019-01-02T09:56:11.915Z,0.61
2019-01-02T09:57:13.383Z,0.64
2019-01-02T09:58:13.945Z,0.45
2019-01-02T09:59:14.366Z,0.51
2019-01-02T10:00:15.506Z,0.63
2019-01-02T10:01:16.209Z,0.44
2019-01-02T10:02:16.908Z,0.48
2019-01-02T10:03:17.457Z,0.47
2019-01-02T10:04:17.885Z,0.42
2019-01-02T10:05:18.303Z,0.4
2019-01-02T10:06:19.279Z,0.44
2019-01-02T10:07:19.805Z,0.42
2019-01-02T10:08:20.505Z,0.48
2019-01-02T10:09:20.927Z,0.49
2019-01-02T10:10:21.625Z,0.64
2019-01-02T10:11:22.601Z,0.58
2019-01-02T10:12:23.298Z,0.61
2019-01-02T10:13:24.153Z,0.68
2019-01-02T10:14:25.572Z,0.81
2019-01-02T10:15:25.992Z,0.81
2019-01-02T10:16:26.692Z,0.84
2019-01-02T10:17:27.392Z,0.78
2019-01-02T10:18:27.813Z,0.86
2019-01-02T10:19:28.512Z,0.89
2019-01-02T10:20:29.211Z,0.92
2019-01-02T10:21:32.821Z,1.02
2019-01-02T10:22:34.559Z,0.94
2019-01-02T10:22:47.686Z,1.1
2019-01-02T10:23:00.001Z,0.99
2019-01-02T10:23:12.513Z,1
2019-01-02T10:23:25.050Z,0.94
2019-01-02T10:24:22.236Z,0.96
2019-01-02T10:25:22.936Z,1.21
2019-01-02T10:26:24.184Z,1.27
2019-01-02T10:27:24.601Z,1.27
2019-01-02T10:28:25.023Z,1.28
2019-01-02T10:29:25.168Z,1.28
2019-01-02T10:30:26.587Z,1.27
2019-01-02T10:31:26.733Z,1.31
2019-01-02T10:32:27.990Z,1.38
2019-01-02T10:33:28.693Z,1.42
2019-01-02T10:34:37.570Z,1.34
2019-01-02T10:35:38.150Z,1.31
2019-01-02T10:36:38.875Z,1.3
2019-01-02T10:37:39.298Z,1.34
2019-01-02T10:38:40.191Z,1.42
2019-01-02T10:39:40.997Z,1.42
2019-01-02T10:40:41.975Z,1.43
2019-01-02T10:41:41.680Z,1.49
2019-01-02T10:42:44.919Z,1.38
2019-01-02T10:43:42.423Z,1.42
2019-01-02T10:44:43.852Z,1.34
2019-01-02T10:45:56.733Z,1.27
2019-01-02T10:46:57.281Z,1.28
2019-01-02T10:47:58.533Z,1.32
2019-01-02T10:48:58.788Z,1.4
2019-01-02T10:49:59.489Z,1.39
2019-01-02T10:51:00.320Z,1.4
2019-01-02T10:52:03.206Z,1.38
2019-01-02T10:53:02.309Z,1.36
2019-01-02T10:54:03.567Z,1.4
2019-01-02T10:55:04.597Z,1.38
2019-01-02T10:56:04.864Z,1.3
2019-01-02T10:57:05.420Z,1.3
2019-01-02T10:58:06.846Z,1.3
2019-01-02T10:59:10.624Z,1.3
2019-01-02T11:00:08.051Z,1.25
2019-01-02T11:01:08.757Z,1.25
2019-01-02T11:02:09.736Z,1.31
2019-01-02T11:03:09.874Z,1.27
2019-01-02T11:04:10.849Z,1.28
2019-01-02T11:05:11.548Z,1.3
2019-01-02T11:06:11.976Z,1.31
2019-01-02T11:07:13.108Z,1.28
2019-01-02T11:08:14.838Z,1.28
2019-01-02T11:09:15.534Z,1.24
2019-01-02T11:10:16.679Z,1.25
2019-01-02T11:11:18.038Z,1.25
2019-01-02T11:12:18.468Z,1.27
2019-01-02T11:13:19.451Z,1.25
2019-01-02T11:14:19.874Z,1.31
2019-01-02T11:15:20.846Z,1.25
2019-01-02T11:16:21.548Z,1.28
2019-01-02T11:17:22.400Z,1.34
2019-01-02T11:18:23.547Z,1.43
2019-01-02T11:19:24.247Z,1.43
2019-01-02T11:20:25.388Z,1.43
2019-01-02T11:21:26.379Z,1.5
2019-01-02T11:22:29.085Z,1.53
2019-01-02T11:22:41.947Z,1.6
2019-01-02T11:22:53.648Z,1.58
2019-01-02T11:23:50.724Z,1.53
2019-01-02T11:24:51.426Z,1.6
2019-01-02T11:25:53.122Z,1.56
2019-01-02T11:26:53.580Z,1.63
2019-01-02T11:27:53.285Z,1.58
2019-01-02T11:28:53.428Z,1.58
2019-01-02T11:29:54.124Z,1.63
2019-01-02T11:30:55.270Z,1.56
2019-01-02T11:31:56.011Z,1.46
2019-01-02T11:32:57.434Z,1.48
2019-01-02T11:33:58.601Z,1.53
2019-01-02T11:34:59.022Z,1.58
2019-01-02T11:35:59.720Z,1.63
2019-01-02T11:37:00.433Z,1.63
2019-01-02T11:38:01.693Z,1.68
2019-01-02T11:39:02.391Z,1.81
2019-01-02T11:40:02.944Z,1.79
2019-01-02T11:41:03.640Z,1.75
2019-01-02T11:42:03.786Z,1.75
2019-01-02T11:43:04.515Z,1.68
2019-01-02T11:44:05.454Z,1.75
2019-01-02T11:45:06.707Z,1.66
2019-01-02T11:46:07.127Z,1.7
2019-01-02T11:47:08.108Z,1.67
2019-01-02T11:48:08.822Z,1.71
2019-01-02T11:49:09.248Z,1.84
2019-01-02T11:50:11.352Z,1.75
2019-01-02T11:51:13.601Z,1.78
2019-01-02T11:51:22.574Z,1.89
2019-01-02T11:52:27.632Z,1.79
2019-01-02T11:52:38.871Z,1.7
2019-01-02T11:52:50.255Z,1.81
2019-01-02T11:53:49.135Z,1.84
2019-01-02T11:54:49.307Z,1.84
2019-01-02T11:55:50.728Z,1.76
2019-01-02T11:56:51.192Z,1.79
2019-01-02T11:57:51.618Z,1.76
2019-01-02T11:58:52.038Z,1.78
2019-01-02T11:59:53.185Z,1.81
2019-01-02T12:00:54.167Z,1.82
2019-01-02T12:01:54.590Z,1.66
2019-01-02T12:02:55.288Z,1.82
2019-01-02T12:03:56.286Z,1.78
2019-01-02T12:04:56.432Z,1.84
2019-01-02T12:05:56.850Z,1.75
2019-01-02T12:06:57.548Z,1.88
2019-01-02T12:08:02.472Z,1.81
2019-01-02T12:08:13.575Z,1.82
2019-01-02T12:09:11.283Z,1.82
2019-01-02T12:10:11.722Z,1.95
2019-01-02T12:11:12.701Z,1.95
2019-01-02T12:12:13.673Z,2.14
2019-01-02T12:13:14.096Z,2.05
2019-01-02T12:14:15.071Z,1.98
2019-01-02T12:15:15.792Z,1.97
2019-01-02T12:16:16.218Z,1.98
2019-01-02T12:17:16.917Z,1.95
2019-01-02T12:18:17.337Z,1.89
2019-01-02T12:19:18.546Z,1.85
2019-01-02T12:20:18.976Z,1.95
2019-01-02T12:21:19.952Z,1.93
2019-01-02T12:22:23.725Z,1.95
2019-01-02T12:23:22.772Z,1.88
2019-01-02T12:24:23.919Z,1.97
2019-01-02T12:25:24.945Z,2.01
2019-01-02T12:26:25.645Z,2
2019-01-02T12:27:28.481Z,2.12
2019-01-02T12:27:42.078Z,2.1
2019-01-02T12:27:55.197Z,2.18
2019-01-02T12:28:52.868Z,2.16
2019-01-02T12:29:53.286Z,2.15
2019-01-02T12:30:54.432Z,2.1
2019-01-02T12:31:55.441Z,2.25
2019-01-02T12:32:56.582Z,2.32
2019-01-02T12:33:57.278Z,2.26
2019-01-02T12:34:58.698Z,2.19
2019-01-02T12:35:58.865Z,2.12
2019-01-02T12:36:59.574Z,2.05
2019-01-02T12:38:00.291Z,2.08
2019-01-02T12:39:00.565Z,2.01
2019-01-02T12:40:01.274Z,2.1
2019-01-02T12:41:02.274Z,2
2019-01-02T12:42:02.419Z,1.97
2019-01-02T12:43:03.564Z,1.86
2019-01-02T12:44:04.709Z,1.86
2019-01-02T12:45:05.134Z,2
2019-01-02T12:46:06.554Z,2.03
2019-01-02T12:47:07.532Z,2.05
2019-01-02T12:48:08.797Z,2.07
2019-01-02T12:49:09.352Z,2.01
2019-01-02T12:50:10.053Z,2.03
2019-01-02T12:51:11.478Z,1.98
2019-01-02T12:52:11.898Z,1.98
2019-01-02T12:53:15.987Z,1.88
2019-01-02T12:53:26.188Z,2.01
2019-01-02T12:54:24.882Z,2
2019-01-02T12:55:25.856Z,2.12
2019-01-02T12:56:26.000Z,1.92
2019-01-02T12:57:27.447Z,2
2019-01-02T12:58:28.150Z,2
2019-01-02T12:59:28.884Z,2.01
2019-01-02T13:00:30.139Z,2.01
2019-01-02T13:01:34.378Z,1.92
2019-01-02T13:02:32.509Z,2.12
2019-01-02T13:03:34.794Z,2.03
2019-01-02T13:04:35.624Z,2.14
2019-01-02T13:05:36.768Z,2.08
2019-01-02T13:06:37.905Z,2.22
2019-01-02T13:07:45.686Z,2.15
2019-01-02T13:07:52.164Z,2.1
2019-01-02T13:08:52.488Z,2.19
2019-01-02T13:09:54.630Z,2.25
2019-01-02T13:10:54.186Z,2.33
2019-01-02T13:11:55.332Z,2.25
2019-01-02T13:12:56.516Z,2.23
2019-01-02T13:13:56.709Z,2.25
2019-01-02T13:14:57.410Z,2.25